sensor_id;sensor_type;location;lat;lon;timestamp;pressure;altitude;pressure_sealevel;temperature;humidity
71504;BME280;59323;50.874;7.028;2023-12-20T02:10:27;101190.72;;;6.45;100.00
71504;BME280;59323;50.874;7.028;2023-12-20T02:12:54;101185.03;;;6.38;100.00
71504;BME280;59323;50.874;7.028;2023-12-20T02:15:20;101191.69;;;6.41;100.00
71504;BME280;59323;50.874;7.028;2023-12-20T02:17:47;101178.09;;;6.28;100.00
71504;BME280;59323;50.874;7.028;2023-12-20T02:20:15;101169.56;;;6.18;100.00
71504;BME280;59323;50.874;7.028;2023-12-20T02:22:41;101183.69;;;6.23;100.00
71504;BME280;59323;50.874;7.028;2023-12-20T02:25:06;101182.44;;;6.12;100.00
71504;BME280;59323;50.874;7.028;2023-12-20T02:27:32;101207.03;;;6.19;100.00
71504;BME280;59323;50.874;7.028;2023-12-20T02:29:57;101200.72;;;6.07;100.00
71504;BME280;59323;50.874;7.028;2023-12-20T02:32:24;101190.91;;;5.93;100.00
71504;BME280;59323;50.874;7.028;2023-12-20T02:34:52;101189.31;;;5.84;100.00
71504;BME280;59323;50.874;7.028;2023-12-20T02:37:17;101189.47;;;5.79;100.00
71504;BME280;59323;50.874;7.028;2023-12-20T02:39:43;101199.28;;;5.83;100.00
71504;BME280;59323;50.874;7.028;2023-12-20T02:42:08;101210.09;;;5.74;100.00
71504;BME280;59323;50.874;7.028;2023-12-20T02:44:37;101204.88;;;5.69;100.00
71504;BME280;59323;50.874;7.028;2023-12-20T02:47:14;101198.22;;;5.58;100.00
71504;BME280;59323;50.874;7.028;2023-12-20T02:49:42;101202.69;;;5.54;100.00
71504;BME280;59323;50.874;7.028;2023-12-20T02:52:12;101217.91;;;5.50;100.00
71504;BME280;59323;50.874;7.028;2023-12-20T02:54:38;101220.59;;;5.50;100.00
71504;BME280;59323;50.874;7.028;2023-12-20T02:57:15;101214.25;;;5.55;100.00
71504;BME280;59323;50.874;7.028;2023-12-20T02:59:40;101216.16;;;5.46;100.00
71504;BME280;59323;50.874;7.028;2023-12-20T03:02:06;101202.84;;;5.32;100.00
71504;BME280;59323;50.874;7.028;2023-12-20T03:04:42;101213.78;;;5.35;100.00
71504;BME280;59323;50.874;7.028;2023-12-20T03:10:44;101213.47;;;5.28;100.00
71504;BME280;59323;50.874;7.028;2023-12-20T03:13:35;101202.38;;;5.21;100.00
71504;BME280;59323;50.874;7.028;2023-12-20T03:16:18;101218.38;;;5.26;100.00
71504;BME280;59323;50.874;7.028;2023-12-20T03:18:56;101232.97;;;5.34;100.00
71504;BME280;59323;50.874;7.028;2023-12-20T03:21:44;101202.38;;;5.21;100.00
71504;BME280;59323;50.874;7.028;2023-12-20T03:24:48;101214.88;;;5.26;100.00
71504;BME280;59323;50.874;7.028;2023-12-20T03:27:16;101212.66;;;5.36;100.00
71504;BME280;59323;50.874;7.028;2023-12-20T03:36:14;101210.13;;;5.31;100.00
71504;BME280;59323;50.874;7.028;2023-12-20T03:39:05;101195.25;;;5.25;100.00
71504;BME280;59323;50.874;7.028;2023-12-20T03:48:35;101220.13;;;5.48;100.00
71504;BME280;59323;50.874;7.028;2023-12-20T03:51:36;101202.69;;;5.46;100.00
71504;BME280;59323;50.874;7.028;2023-12-20T03:54:07;101188.09;;;5.38;100.00
71504;BME280;59323;50.874;7.028;2023-12-20T03:56:42;101200.78;;;5.46;100.00
71504;BME280;59323;50.874;7.028;2023-12-20T04:02:24;101207.28;;;5.45;100.00
71504;BME280;59323;50.874;7.028;2023-12-20T04:05:13;101201.09;;;5.45;100.00
71504;BME280;59323;50.874;7.028;2023-12-20T04:07:39;101202.53;;;5.42;100.00
71504;BME280;59323;50.874;7.028;2023-12-20T04:10:07;101204.09;;;5.43;100.00
71504;BME280;59323;50.874;7.028;2023-12-20T04:12:39;101212.66;;;5.45;100.00
71504;BME280;59323;50.874;7.028;2023-12-20T04:15:07;101198.41;;;5.36;100.00
71504;BME280;59323;50.874;7.028;2023-12-20T04:17:44;101210.59;;;5.42;100.00
71504;BME280;59323;50.874;7.028;2023-12-20T04:20:13;101194.91;;;5.35;100.00
71504;BME280;59323;50.874;7.028;2023-12-20T04:22:53;101196.03;;;5.34;100.00
71504;BME280;59323;50.874;7.028;2023-12-20T04:25:21;101203.78;;;5.36;100.00
71504;BME280;59323;50.874;7.028;2023-12-20T04:28:05;101208.22;;;5.40;100.00
71504;BME280;59323;50.874;7.028;2023-12-20T04:31:05;101196.97;;;5.38;100.00
71504;BME280;59323;50.874;7.028;2023-12-20T04:33:37;101205.22;;;5.33;100.00
71504;BME280;59323;50.874;7.028;2023-12-20T04:36:08;101195.06;;;5.30;100.00
71504;BME280;59323;50.874;7.028;2023-12-20T04:42:04;101201.25;;;5.31;100.00
71504;BME280;59323;50.874;7.028;2023-12-20T04:44:29;101220.13;;;5.48;100.00
71504;BME280;59323;50.874;7.028;2023-12-20T04:47:21;101216.00;;;5.51;100.00
71504;BME280;59323;50.874;7.028;2023-12-20T04:50:09;101226.31;;;5.40;100.00
71504;BME280;59323;50.874;7.028;2023-12-20T04:52:49;101222.97;;;5.34;100.00
71504;BME280;59323;50.874;7.028;2023-12-20T04:55:38;101227.09;;;5.32;100.00
71504;BME280;59323;50.874;7.028;2023-12-20T04:58:48;101231.84;;;5.35;100.00
71504;BME280;59323;50.874;7.028;2023-12-20T05:01:41;101232.50;;;5.32;100.00
71504;BME280;59323;50.874;7.028;2023-12-20T05:04:39;101213.94;;;5.22;100.00
71504;BME280;59323;50.874;7.028;2023-12-20T05:07:39;101209.94;;;5.19;100.00
71504;BME280;59323;50.874;7.028;2023-12-20T05:10:59;101219.94;;;5.19;100.00
71504;BME280;59323;50.874;7.028;2023-12-20T05:34:06;101225.00;;;5.12;100.00
71504;BME280;59323;50.874;7.028;2023-12-20T05:36:31;101217.22;;;5.10;100.00
71504;BME280;59323;50.874;7.028;2023-12-20T05:38:56;101214.69;;;5.14;100.00
71504;BME280;59323;50.874;7.028;2023-12-20T05:41:22;101225.31;;;5.19;100.00
71504;BME280;59323;50.874;7.028;2023-12-20T05:43:48;101235.50;;;5.22;100.00
71504;BME280;59323;50.874;7.028;2023-12-20T05:46:13;101224.84;;;5.17;100.00
71504;BME280;59323;50.874;7.028;2023-12-20T05:48:42;101224.50;;;5.09;100.00
71504;BME280;59323;50.874;7.028;2023-12-20T05:51:13;101230.22;;;5.17;100.00
71504;BME280;59323;50.874;7.028;2023-12-20T05:53:39;101228.63;;;5.16;100.00
71504;BME280;59323;50.874;7.028;2023-12-20T05:56:08;101212.16;;;5.08;100.00
71504;BME280;59323;50.874;7.028;2023-12-20T05:58:33;101242.59;;;5.18;100.00
71504;BME280;59323;50.874;7.028;2023-12-20T06:00:59;101229.44;;;5.16;100.00
71504;BME280;59323;50.874;7.028;2023-12-20T06:03:34;101217.06;;;5.06;100.00
71504;BME280;59323;50.874;7.028;2023-12-20T06:06:12;101219.13;;;5.09;100.00
71504;BME280;59323;50.874;7.028;2023-12-20T06:08:48;101232.59;;;5.18;100.00
71504;BME280;59323;50.874;7.028;2023-12-20T06:11:20;101233.88;;;5.12;100.00
71504;BME280;59323;50.874;7.028;2023-12-20T06:13:45;101242.78;;;5.21;100.00
71504;BME280;59323;50.874;7.028;2023-12-20T06:16:11;101242.31;;;5.28;100.00
71504;BME280;59323;50.874;7.028;2023-12-20T06:18:37;101238.81;;;5.27;100.00
71504;BME280;59323;50.874;7.028;2023-12-20T06:31:25;101234.38;;;5.31;100.00
71504;BME280;59323;50.874;7.028;2023-12-20T07:12:52;101235.50;;;5.48;100.00
71504;BME280;59323;50.874;7.028;2023-12-20T08:05:32;101255.94;;;5.57;100.00
71504;BME280;59323;50.874;7.028;2023-12-20T08:08:56;101256.75;;;5.66;100.00
71504;BME280;59323;50.874;7.028;2023-12-20T08:11:24;101251.50;;;5.61;100.00
71504;BME280;59323;50.874;7.028;2023-12-20T08:13:53;101256.91;;;5.61;100.00
71504;BME280;59323;50.874;7.028;2023-12-20T08:16:24;101245.97;;;5.58;100.00
71504;BME280;59323;50.874;7.028;2023-12-20T08:18:50;101257.69;;;5.62;100.00
71504;BME280;59323;50.874;7.028;2023-12-20T08:21:18;101268.63;;;5.74;100.00
71504;BME280;59323;50.874;7.028;2023-12-20T08:23:47;101254.66;;;5.72;100.00
71504;BME280;59323;50.874;7.028;2023-12-20T08:26:27;101259.44;;;5.75;100.00
71504;BME280;59323;50.874;7.028;2023-12-20T08:29:03;101254.34;;;5.73;100.00
71504;BME280;59323;50.874;7.028;2023-12-20T08:31:29;101244.69;;;5.64;100.00
71504;BME280;59323;50.874;7.028;2023-12-20T08:33:55;101257.06;;;5.73;100.00
71504;BME280;59323;50.874;7.028;2023-12-20T08:36:21;101261.66;;;5.73;100.00
71504;BME280;59323;50.874;7.028;2023-12-20T08:38:49;101256.72;;;5.75;100.00
71504;BME280;59323;50.874;7.028;2023-12-20T08:41:35;101246.91;;;5.70;100.00
71504;BME280;59323;50.874;7.028;2023-12-20T08:44:02;101251.03;;;5.77;100.00
71504;BME280;59323;50.874;7.028;2023-12-20T08:46:27;101259.91;;;5.86;100.00
71504;BME280;59323;50.874;7.028;2023-12-20T08:49:09;101245.66;;;5.85;100.00
71504;BME280;59323;50.874;7.028;2023-12-20T08:51:45;101261.19;;;5.97;100.00
71504;BME280;59323;50.874;7.028;2023-12-20T08:54:57;101245.66;;;5.94;100.00
71504;BME280;59323;50.874;7.028;2023-12-20T08:57:59;101252.16;;;6.01;100.00
71504;BME280;59323;50.874;7.028;2023-12-20T09:07:26;101273.84;;;6.22;100.00
71504;BME280;59323;50.874;7.028;2023-12-20T09:13:25;101281.94;;;6.22;100.00
71504;BME280;59323;50.874;7.028;2023-12-20T09:16:22;101271.47;;;6.21;100.00
71504;BME280;59323;50.874;7.028;2023-12-20T09:19:20;101260.22;;;6.10;100.00
71504;BME280;59323;50.874;7.028;2023-12-20T09:26:05;101268.94;;;6.16;100.00
71504;BME280;59323;50.874;7.028;2023-12-20T09:39:34;101251.00;;;6.11;100.00
71504;BME280;59323;50.874;7.028;2023-12-20T09:42:15;101259.13;;;6.11;100.00
71504;BME280;59323;50.874;7.028;2023-12-20T11:12:33;101204.84;;;6.51;100.00
71504;BME280;59323;50.874;7.028;2023-12-20T11:27:13;101194.69;;;6.48;100.00
71504;BME280;59323;50.874;7.028;2023-12-20T11:37:13;101204.69;;;6.56;100.00
71504;BME280;59323;50.874;7.028;2023-12-20T11:40:37;101202.91;;;6.60;100.00
71504;BME280;59323;50.874;7.028;2023-12-20T12:40:39;101138.97;;;6.73;100.00
71504;BME280;59323;50.874;7.028;2023-12-20T12:43:41;101118.56;;;6.63;100.00
71504;BME280;59323;50.874;7.028;2023-12-20T12:47:06;101136.88;;;6.78;100.00
71504;BME280;59323;50.874;7.028;2023-12-20T12:49:40;101132.13;;;6.75;100.00
71504;BME280;59323;50.874;7.028;2023-12-20T12:52:06;101115.47;;;6.73;100.00
71504;BME280;59323;50.874;7.028;2023-12-20T12:54:42;101117.84;;;6.75;100.00
71504;BME280;59323;50.874;7.028;2023-12-20T12:57:15;101112.44;;;6.75;100.00
71504;BME280;59323;50.874;7.028;2023-12-20T12:59:42;101102.16;;;6.68;100.00
71504;BME280;59323;50.874;7.028;2023-12-20T13:02:17;101097.00;;;6.75;100.00
71504;BME280;59323;50.874;7.028;2023-12-20T13:04:43;101117.75;;;6.83;100.00
71504;BME280;59323;50.874;7.028;2023-12-20T13:07:12;101103.22;;;6.76;100.00
71504;BME280;59323;50.874;7.028;2023-12-20T13:09:40;101097.00;;;6.75;100.00
71504;BME280;59323;50.874;7.028;2023-12-20T13:12:06;101107.63;;;6.80;100.00
71504;BME280;59323;50.874;7.028;2023-12-20T13:14:36;101097.47;;;6.77;100.00
71504;BME280;59323;50.874;7.028;2023-12-20T13:17:06;101101.75;;;6.78;100.00
71504;BME280;59323;50.874;7.028;2023-12-20T13:19:40;101086.88;;;6.72;100.00
71504;BME280;59323;50.874;7.028;2023-12-20T13:22:17;101088.00;;;6.71;100.00
71504;BME280;59323;50.874;7.028;2023-12-20T13:24:52;101085.16;;;6.67;100.00
71504;BME280;59323;50.874;7.028;2023-12-20T13:27:26;101079.28;;;6.65;100.00
71504;BME280;59323;50.874;7.028;2023-12-20T13:30:16;101065.19;;;6.60;100.00
71504;BME280;59323;50.874;7.028;2023-12-20T13:33:04;101063.03;;;6.53;100.00
71504;BME280;59323;50.874;7.028;2023-12-20T13:35:31;101076.00;;;6.60;100.00
71504;BME280;59323;50.874;7.028;2023-12-20T13:38:13;101092.94;;;6.69;100.00
71504;BME280;59323;50.874;7.028;2023-12-20T13:40:45;101081.06;;;6.61;100.00
71504;BME280;59323;50.874;7.028;2023-12-20T13:43:22;101058.41;;;6.54;100.00
71504;BME280;59323;50.874;7.028;2023-12-20T13:45:57;101064.75;;;6.58;100.00
71504;BME280;59323;50.874;7.028;2023-12-20T13:48:32;101055.72;;;6.54;100.00
71504;BME280;59323;50.874;7.028;2023-12-20T13:51:04;101038.41;;;6.55;100.00
71504;BME280;59323;50.874;7.028;2023-12-20T13:53:32;101045.66;;;6.63;100.00
71504;BME280;59323;50.874;7.028;2023-12-20T13:56:07;101044.19;;;6.65;100.00
71504;BME280;59323;50.874;7.028;2023-12-20T13:58:36;101018.50;;;6.59;100.00
71504;BME280;59323;50.874;7.028;2023-12-20T14:01:10;101025.16;;;6.62;100.00
71504;BME280;59323;50.874;7.028;2023-12-20T14:06:15;101031.63;;;6.70;100.00
71504;BME280;59323;50.874;7.028;2023-12-20T14:08:48;101019.81;;;6.74;100.00
71504;BME280;59323;50.874;7.028;2023-12-20T14:11:19;101012.84;;;6.73;100.00
71504;BME280;59323;50.874;7.028;2023-12-20T14:13:59;101013.97;;;6.72;100.00
71504;BME280;59323;50.874;7.028;2023-12-20T14:16:27;101021.06;;;6.77;100.00
71504;BME280;59323;50.874;7.028;2023-12-20T14:18:55;101022.84;;;6.73;100.00
71504;BME280;59323;50.874;7.028;2023-12-20T14:21:27;101033.13;;;6.79;100.00
71504;BME280;59323;50.874;7.028;2023-12-20T14:23:53;101026.13;;;6.78;100.00
71504;BME280;59323;50.874;7.028;2023-12-20T14:26:33;101018.25;;;6.73;100.00
71504;BME280;59323;50.874;7.028;2023-12-20T14:28:58;101020.28;;;6.76;100.00
71504;BME280;59323;50.874;7.028;2023-12-20T14:31:27;101020.59;;;6.75;100.00
71504;BME280;59323;50.874;7.028;2023-12-20T14:33:56;101019.50;;;6.76;100.00
71504;BME280;59323;50.874;7.028;2023-12-20T14:36:29;101019.50;;;6.76;100.00
71504;BME280;59323;50.874;7.028;2023-12-20T14:39:10;101031.34;;;6.83;100.00
71504;BME280;59323;50.874;7.028;2023-12-20T14:41:54;101012.19;;;6.76;100.00
71504;BME280;59323;50.874;7.028;2023-12-20T14:44:29;101019.88;;;6.86;100.00
71504;BME280;59323;50.874;7.028;2023-12-20T14:47:10;101021.00;;;6.85;100.00
71504;BME280;59323;50.874;7.028;2023-12-20T14:49:39;101016.72;;;6.84;100.00
71504;BME280;59323;50.874;7.028;2023-12-20T14:52:14;101016.72;;;6.84;100.00
71504;BME280;59323;50.874;7.028;2023-12-20T14:54:45;101034.16;;;6.87;100.00
71504;BME280;59323;50.874;7.028;2023-12-20T14:57:11;101040.81;;;6.89;100.00
71504;BME280;59323;50.874;7.028;2023-12-20T14:59:36;101038.13;;;6.89;100.00
71504;BME280;59323;50.874;7.028;2023-12-20T15:02:02;101024.81;;;6.84;100.00
71504;BME280;59323;50.874;7.028;2023-12-20T15:04:33;101028.09;;;6.90;100.00
71504;BME280;59323;50.874;7.028;2023-12-20T15:07:08;101025.28;;;6.86;100.00
71504;BME280;59323;50.874;7.028;2023-12-20T15:09:38;101020.66;;;6.87;100.00
71504;BME280;59323;50.874;7.028;2023-12-20T15:12:07;101017.81;;;6.83;100.00
71504;BME280;59323;50.874;7.028;2023-12-20T15:14:48;101017.16;;;6.86;100.00
71504;BME280;59323;50.874;7.028;2023-12-20T15:17:14;101001.16;;;6.81;100.00
71504;BME280;59323;50.874;7.028;2023-12-20T15:19:42;101007.69;;;6.80;100.00
71504;BME280;59323;50.874;7.028;2023-12-20T15:22:14;101005.56;;;6.86;100.00
71504;BME280;59323;50.874;7.028;2023-12-20T15:24:42;101011.09;;;6.89;100.00
71504;BME280;59323;50.874;7.028;2023-12-20T15:27:09;101012.34;;;6.92;100.00
71504;BME280;59323;50.874;7.028;2023-12-20T15:29:35;101028.81;;;6.99;100.00
71504;BME280;59323;50.874;7.028;2023-12-20T15:32:01;101025.97;;;6.95;100.00
71504;BME280;59323;50.874;7.028;2023-12-20T15:34:28;101010.31;;;6.89;100.00
71504;BME280;59323;50.874;7.028;2023-12-20T15:36:53;101026.75;;;6.96;100.00
71504;BME280;59323;50.874;7.028;2023-12-20T15:39:19;101022.22;;;6.88;100.00
71504;BME280;59323;50.874;7.028;2023-12-20T15:41:44;101022.16;;;6.96;100.00
71504;BME280;59323;50.874;7.028;2023-12-20T15:44:09;101020.44;;;6.92;100.00
71504;BME280;59323;50.874;7.028;2023-12-20T15:46:35;101026.63;;;6.92;100.00
71504;BME280;59323;50.874;7.028;2023-12-20T15:49:00;101023.72;;;6.97;100.00
71504;BME280;59323;50.874;7.028;2023-12-20T15:51:26;101014.03;;;6.96;100.00
71504;BME280;59323;50.874;7.028;2023-12-20T15:53:51;101012.47;;;6.95;100.00
71504;BME280;59323;50.874;7.028;2023-12-20T15:56:17;101007.97;;;6.99;100.00
71504;BME280;59323;50.874;7.028;2023-12-20T15:58:43;101012.94;;;6.97;100.00
71504;BME280;59323;50.874;7.028;2023-12-20T16:01:09;101002.78;;;6.94;100.00
71504;BME280;59323;50.874;7.028;2023-12-20T16:03:34;101006.47;;;6.90;100.00
71504;BME280;59323;50.874;7.028;2023-12-20T16:06:00;101006.16;;;6.91;100.00
71504;BME280;59323;50.874;7.028;2023-12-20T16:08:25;101010.09;;;6.94;100.00
71504;BME280;59323;50.874;7.028;2023-12-20T16:10:52;100997.59;;;6.89;100.00
71504;BME280;59323;50.874;7.028;2023-12-20T16:13:17;100987.69;;;6.93;100.00
71504;BME280;59323;50.874;7.028;2023-12-20T16:15:43;100979.13;;;6.91;100.00
71504;BME280;59323;50.874;7.028;2023-12-20T16:18:09;100987.16;;;7.00;100.00
71504;BME280;59323;50.874;7.028;2023-12-20T16:20:39;100990.41;;;6.93;100.00
71504;BME280;59323;50.874;7.028;2023-12-20T16:23:05;100991.97;;;6.94;100.00
71504;BME280;59323;50.874;7.028;2023-12-20T16:25:33;100991.56;;;7.05;100.00
71504;BME280;59323;50.874;7.028;2023-12-20T16:28:05;100986.38;;;6.99;100.00
71504;BME280;59323;50.874;7.028;2023-12-20T16:30:37;100989.06;;;6.99;100.00
71504;BME280;59323;50.874;7.028;2023-12-20T16:33:03;100982.53;;;7.00;100.00
71504;BME280;59323;50.874;7.028;2023-12-20T16:35:29;100982.75;;;6.95;100.00
71504;BME280;59323;50.874;7.028;2023-12-20T16:37:54;100990.84;;;6.95;100.00
71504;BME280;59323;50.874;7.028;2023-12-20T16:40:20;100992.78;;;6.95;100.00
71504;BME280;59323;50.874;7.028;2023-12-20T16:42:52;100993.69;;;6.99;100.00
71504;BME280;59323;50.874;7.028;2023-12-20T16:45:18;100986.69;;;6.98;100.00
71504;BME280;59323;50.874;7.028;2023-12-20T16:47:44;100979.25;;;6.95;100.00
71504;BME280;59323;50.874;7.028;2023-12-20T16:50:09;100970.91;;;6.88;100.00
71504;BME280;59323;50.874;7.028;2023-12-20T16:52:35;100982.28;;;6.93;100.00
71504;BME280;59323;50.874;7.028;2023-12-20T16:55:01;100976.09;;;6.93;100.00
71504;BME280;59323;50.874;7.028;2023-12-20T16:57:27;100966.88;;;6.94;100.00
71504;BME280;59323;50.874;7.028;2023-12-20T16:59:52;100974.66;;;6.95;100.00
71504;BME280;59323;50.874;7.028;2023-12-20T17:02:18;100963.50;;;6.97;100.00
71504;BME280;59323;50.874;7.028;2023-12-20T17:04:43;100960.00;;;6.96;100.00
71504;BME280;59323;50.874;7.028;2023-12-20T17:07:09;100956.53;;;6.96;100.00
71504;BME280;59323;50.874;7.028;2023-12-20T17:09:34;100963.50;;;6.97;100.00
71504;BME280;59323;50.874;7.028;2023-12-20T17:11:59;100978.84;;;7.05;100.00
71504;BME280;59323;50.874;7.028;2023-12-20T17:14:25;100972.97;;;7.03;100.00
71504;BME280;59323;50.874;7.028;2023-12-20T17:16:50;100972.97;;;7.03;100.00
71504;BME280;59323;50.874;7.028;2023-12-20T17:19:16;100973.31;;;7.02;100.00
71504;BME280;59323;50.874;7.028;2023-12-20T17:21:41;100976.94;;;7.06;100.00
71504;BME280;59323;50.874;7.028;2023-12-20T17:24:07;100968.38;;;7.04;100.00
71504;BME280;59323;50.874;7.028;2023-12-20T17:26:33;100960.72;;;7.06;100.00
71504;BME280;59323;50.874;7.028;2023-12-20T17:29:03;100962.41;;;7.10;100.00
71504;BME280;59323;50.874;7.028;2023-12-20T17:31:41;100946.53;;;7.09;100.00
71504;BME280;59323;50.874;7.028;2023-12-20T17:34:15;100937.63;;;7.08;100.00
71504;BME280;59323;50.874;7.028;2023-12-20T17:36:41;100937.91;;;7.15;100.00
71504;BME280;59323;50.874;7.028;2023-12-20T17:39:07;100935.78;;;7.21;100.00
71504;BME280;59323;50.874;7.028;2023-12-20T17:41:33;100919.28;;;7.14;100.00
71504;BME280;59323;50.874;7.028;2023-12-20T17:44:00;100930.81;;;7.23;100.00
71504;BME280;59323;50.874;7.028;2023-12-20T17:46:26;100925.97;;;7.28;100.00
71504;BME280;59323;50.874;7.028;2023-12-20T17:48:51;100915.72;;;7.22;100.00
71504;BME280;59323;50.874;7.028;2023-12-20T17:51:22;100923.03;;;7.21;100.00
71504;BME280;59323;50.874;7.028;2023-12-20T17:53:50;100920.13;;;7.26;100.00
71504;BME280;59323;50.874;7.028;2023-12-20T17:56:17;100908.84;;;7.24;100.00
71504;BME280;59323;50.874;7.028;2023-12-20T17:58:45;100908.97;;;7.28;100.00
71504;BME280;59323;50.874;7.028;2023-12-20T18:01:14;100902.66;;;7.24;100.00
71504;BME280;59323;50.874;7.028;2023-12-20T18:03:40;100908.97;;;7.28;100.00
71504;BME280;59323;50.874;7.028;2023-12-20T18:06:19;100911.44;;;7.33;100.00
71504;BME280;59323;50.874;7.028;2023-12-20T18:11:39;100896.69;;;7.30;100.00
71504;BME280;59323;50.874;7.028;2023-12-20T18:14:10;100887.78;;;7.30;100.00
71504;BME280;59323;50.874;7.028;2023-12-20T18:16:39;100883.19;;;7.30;100.00
71504;BME280;59323;50.874;7.028;2023-12-20T18:19:11;100869.66;;;7.30;100.00
71504;BME280;59323;50.874;7.028;2023-12-20T18:21:44;100874.72;;;7.32;100.00
71504;BME280;59323;50.874;7.028;2023-12-20T18:24:13;100868.88;;;7.30;100.00
71504;BME280;59323;50.874;7.028;2023-12-20T18:26:49;100876.09;;;7.38;100.00
71504;BME280;59323;50.874;7.028;2023-12-20T18:29:23;100874.63;;;7.41;100.00
71504;BME280;59323;50.874;7.028;2023-12-20T18:31:54;100869.78;;;7.34;100.00
71504;BME280;59323;50.874;7.028;2023-12-20T18:34:22;100883.84;;;7.40;100.00
71504;BME280;59323;50.874;7.028;2023-12-20T18:36:51;100869.78;;;7.34;100.00
71504;BME280;59323;50.874;7.028;2023-12-20T18:39:18;100867.75;;;7.43;100.00
71504;BME280;59323;50.874;7.028;2023-12-20T18:41:49;100859.97;;;7.42;100.00
71504;BME280;59323;50.874;7.028;2023-12-20T18:44:18;100870.66;;;7.50;100.00
71504;BME280;59323;50.874;7.028;2023-12-20T18:46:52;100861.88;;;7.53;100.00
71504;BME280;59323;50.874;7.028;2023-12-20T18:49:17;100872.78;;;7.57;100.00
71504;BME280;59323;50.874;7.028;2023-12-20T18:51:53;100865.56;;;7.61;100.00
71504;BME280;59323;50.874;7.028;2023-12-20T18:54:19;100838.88;;;7.59;100.00
71504;BME280;59323;50.874;7.028;2023-12-20T18:56:46;100846.66;;;7.61;100.00
71504;BME280;59323;50.874;7.028;2023-12-20T18:59:21;100823.78;;;7.58;100.00
71504;BME280;59323;50.874;7.028;2023-12-20T19:01:56;100835.94;;;7.64;100.00
71504;BME280;59323;50.874;7.028;2023-12-20T19:04:34;100838.28;;;7.66;100.00
71504;BME280;59323;50.874;7.028;2023-12-20T19:07:05;100824.66;;;7.62;100.00
71504;BME280;59323;50.874;7.028;2023-12-20T19:09:31;100812.13;;;7.70;100.00
71504;BME280;59323;50.874;7.028;2023-12-20T19:11:57;100827.56;;;7.70;100.00
71504;BME280;59323;50.874;7.028;2023-12-20T19:14:26;100817.88;;;7.69;100.00
71504;BME280;59323;50.874;7.028;2023-12-20T19:16:57;100815.53;;;7.67;100.00
71504;BME280;59323;50.874;7.028;2023-12-20T19:19:30;100821.38;;;7.69;100.00
71504;BME280;59323;50.874;7.028;2023-12-20T19:21:58;100834.75;;;7.78;100.00
71504;BME280;59323;50.874;7.028;2023-12-20T19:24:33;100820.34;;;7.74;100.00
71504;BME280;59323;50.874;7.028;2023-12-20T19:26:58;100825.66;;;7.82;100.00
71504;BME280;59323;50.874;7.028;2023-12-20T19:29:24;100811.22;;;7.78;100.00
71504;BME280;59323;50.874;7.028;2023-12-20T19:31:50;100809.19;;;7.87;100.00
71504;BME280;59323;50.874;7.028;2023-12-20T19:34:18;100800.19;;;7.83;100.00
71504;BME280;59323;50.874;7.028;2023-12-20T19:36:44;100792.84;;;7.84;100.00
71504;BME280;59323;50.874;7.028;2023-12-20T19:39:15;100798.25;;;7.84;100.00
71504;BME280;59323;50.874;7.028;2023-12-20T19:41:43;100792.84;;;7.84;100.00
71504;BME280;59323;50.874;7.028;2023-12-20T19:44:14;100786.75;;;7.87;100.00
71504;BME280;59323;50.874;7.028;2023-12-20T19:46:42;100781.00;;;7.88;100.00
71504;BME280;59323;50.874;7.028;2023-12-20T19:49:07;100790.34;;;7.91;100.00
71504;BME280;59323;50.874;7.028;2023-12-20T19:51:33;100798.41;;;8.03;100.00
71504;BME280;59323;50.874;7.028;2023-12-20T19:53:58;100774.63;;;7.97;100.00
71504;BME280;59323;50.874;7.028;2023-12-20T19:56:23;100768.44;;;7.96;100.00
71504;BME280;59323;50.874;7.028;2023-12-20T19:58:51;100766.97;;;7.99;100.00
71504;BME280;59323;50.874;7.028;2023-12-20T20:01:17;100768.09;;;7.98;100.00
71504;BME280;59323;50.874;7.028;2023-12-20T20:03:49;100754.22;;;7.99;100.00
71504;BME280;59323;50.874;7.028;2023-12-20T20:06:14;100739.91;;;7.99;100.00
71504;BME280;59323;50.874;7.028;2023-12-20T20:08:42;100745.41;;;8.02;100.00
71504;BME280;59323;50.874;7.028;2023-12-20T20:11:21;100734.84;;;7.97;100.00
71504;BME280;59323;50.874;7.028;2023-12-20T20:13:51;100739.13;;;7.98;100.00
71504;BME280;59323;50.874;7.028;2023-12-20T20:16:22;100729.44;;;7.97;100.00
71504;BME280;59323;50.874;7.028;2023-12-20T20:18:47;100730.22;;;7.98;100.00
71504;BME280;59323;50.874;7.028;2023-12-20T20:21:13;100716.59;;;7.94;100.00
71504;BME280;59323;50.874;7.028;2023-12-20T20:23:38;100722.34;;;7.92;100.00
71504;BME280;59323;50.874;7.028;2023-12-20T20:26:10;100732.91;;;7.98;100.00
71504;BME280;59323;50.874;7.028;2023-12-20T20:28:41;100722.00;;;7.94;100.00
71504;BME280;59323;50.874;7.028;2023-12-20T20:31:12;100719.22;;;8.06;100.00
71504;BME280;59323;50.874;7.028;2023-12-20T20:33:38;100703.94;;;7.98;100.00
71504;BME280;59323;50.874;7.028;2023-12-20T20:36:24;100705.44;;;7.95;100.00
71504;BME280;59323;50.874;7.028;2023-12-20T20:38:50;100707.00;;;7.97;100.00
71504;BME280;59323;50.874;7.028;2023-12-20T20:41:18;100723.06;;;8.05;100.00
71504;BME280;59323;50.874;7.028;2023-12-20T20:43:44;100715.72;;;8.06;100.00
71504;BME280;59323;50.874;7.028;2023-12-20T20:46:15;100719.31;;;8.10;100.00
71504;BME280;59323;50.874;7.028;2023-12-20T20:48:45;100696.69;;;8.02;100.00
71504;BME280;59323;50.874;7.028;2023-12-20T20:51:14;100691.72;;;8.04;100.00
71504;BME280;59323;50.874;7.028;2023-12-20T20:54:10;100687.19;;;8.08;100.00
71504;BME280;59323;50.874;7.028;2023-12-20T20:56:40;100688.69;;;8.06;100.00
71504;BME280;59323;50.874;7.028;2023-12-20T20:59:34;100683.69;;;8.08;100.00
71504;BME280;59323;50.874;7.028;2023-12-20T21:02:29;100684.84;;;8.07;100.00
71504;BME280;59323;50.874;7.028;2023-12-20T21:05:01;100710.50;;;8.13;100.00